Battle Harbour, Canada
Current Conditions -  °F | °C
As of 6:20 PM on Thursday 18 Dec 2014 (Local Time) from CYMH Reporting Station
Freezing Rain Freezing Rain  
Wind Chill: -6°   Ceiling: 500
Heat Index: -1°   Visibility: 1mi
Dew Point: -2°   Wind: 9mph
Humidity: 93%   Direction: 60°ENE
Pressure: 29.87"   Gusts: NA
Location:  52.27°N, 55.58°W
Report Text: CYMH 182220Z AUTO 06008KT 1SM -FZRA BR VV005 M01/M02 A2987 RMK ICG SLP115
Loading
Personal Weather Stations






























Interactive Weather Map New forecast layout! Learn more

10-Day Weather Forecast

Advertisements
Track Severe Weather on mobile